Historique des mesures à Cassis (13260), France
Quotidien Résumé Janvier 23, 2017 Unités:  US    Métrique   Métrique/US
« Précédent (Jour)
Suivant (Jour) »
Quotidien Hebdomadaire Mensuel Annuel Période au choix
  Maximum: Minimum: Moyenne:
Température: 32 °F 49.1 °F 51.1 °F
Point de rosée: 32 °F 38.7 °F 40.8 °F
Humidité: Humidity % 56 % 65 %
Vitesse du vent: WindSpeedKMH mph 0.0 mph 0 mph
Rafales: WindSpeedGustKMH mph - -
Vent:- - North
Pression: 0 in 29.9 in -
Précipitations: 25.4 in    
Historical Graphs
 
 
Mesures pour : Janvier 23, 2017
Heure Temperature Point de rosée Pression Vent Vitesse du vent Rafales Humidité Pluie (par heure) Conditions
32 °F 32 °F 0 in Calm     Humidity % 0 in SoftwareType W/m2
00:10 54.7 °F 39.2 °F 30 in Calm   5.0 mph 56 % 0 in open2300-1.11 W/m2
01:11 53.8 °F 40.6 °F 30 in Calm     61 % 0 in open2300-1.11 W/m2
02:10 53.8 °F 40.3 °F 30 in Calm     60 % 0 in open2300-1.11 W/m2
03:11 54.1 °F 40.6 °F 30 in Calm     60 % 0 in open2300-1.11 W/m2
04:10 52 °F 42.3 °F 30 in Calm     69 % 12.7 in open2300-1.11 W/m2
05:11 51.1 °F 42.1 °F 29.9 in Calm     71 % 12.7 in open2300-1.11 W/m2
06:10 49.8 °F 41.5 °F 29.9 in Calm     73 % 0 in open2300-1.11 W/m2
07:11 50.4 °F 41.4 °F 29.9 in Calm     71 % 0 in open2300-1.11 W/m2
08:10 49.6 °F 41 °F 30 in Calm     72 % 0 in open2300-1.11 W/m2
09:11 49.1 °F 41.7 °F 30 in Calm     76 % 0 in open2300-1.11 W/m2
10:10 50.4 °F 42.6 °F 30 in Calm     75 % 0 in open2300-1.11 W/m2
11:11 50.7 °F 42.1 °F 30 in Calm     72 % 0 in open2300-1.11 W/m2
12:10 51.6 °F 41 °F 29.9 in Calm   6.1 mph 67 % 0 in open2300-1.11 W/m2
13:11 52.3 °F 42.1 °F 29.9 in Calm     68 % 0 in open2300-1.11 W/m2
14:10 53.8 °F 42.3 °F 29.9 in Calm     65 % 0 in open2300-1.11 W/m2
15:11 55 °F 43 °F 29.9 in Calm     64 % 0 in open2300-1.11 W/m2
16:10 55.6 °F 44.1 °F 29.9 in Calm     65 % 0 in open2300-1.11 W/m2
17:11 54.5 °F 43.3 °F 29.9 in Calm     66 % 0 in open2300-1.11 W/m2
18:10 51.8 °F 41.2 °F 29.9 in Calm     67 % 0 in open2300-1.11 W/m2
19:11 50.9 °F 40.3 °F 29.9 in Calm     67 % 0 in open2300-1.11 W/m2
20:10 50.7 °F 40.1 °F 29.9 in Calm     67 % 0 in open2300-1.11 W/m2
21:11 50.2 °F 39.6 °F 29.9 in Calm     67 % 0 in open2300-1.11 W/m2
22:10 49.6 °F 39 °F 29.9 in Calm     67 % 0 in open2300-1.11 W/m2
23:11 49.1 °F 38.7 °F 29.9 in Calm     67 % 0 in open2300-1.11 W/m2
Observations météo à CASSIS
WU-History script by Weather Underground - 1 mb